Weather at Carroll County Airport

Public forecast

Using degrees Fahrenheit for public forecast. Weather courtesy of forecast.io.

Closest aviation weather report (METAR) to Carroll County Airport

Closest report is Henry County Airport, 15.4 nm (28.6 km) NNE. Retrieved 2020/12/02 05:35 UTC (6 minutes ago):

KPHT 020535Z AUTO 00000KT 10SM CLR M04/M07 A3027 RMK A01

Closest aviation forecast (TAF) to Carroll County Airport

Closest forecast is McKellar-Sipes Regional Airport, 36.7 nm (68.0 km) SW. Retrieved 2020-12-02 00:28 UTC (5 hours ago):

TAF KMKL 012326Z 0200/0224 28007KT P6SM SKC FM020100 00000KT P6SM SKC FM021400 15003KT P6SM BKN250 FM021900 12008KT P6SM FEW250